CheckWX is a tool to help pilots better visualize weather data.  It is not intended as a substitute for an official pre-flight weather briefing.

07:42:15 UTC

KIFP METAR
Laughlin / Bullhead International Airport
Bullhead City, Arizona, USA
Current

7 mins ago

KIFP 060735Z AUTO 00000KT 10SM CLR 32/M01 A2970 RMK AO2
Observed
Jul-6 @ 07:35 UTC
Visibility
10 SM
Flight Rules
VFR
Cloud Levels
  • Clear skies
Temperature
32°C / 90°F
Dewpoint
-1°C / 30°F
Humidity
12%
Altimeter
29.7" Hg
Pressure
1005.72 hPa
Previous

27 mins ago

KIFP 060715Z AUTO 00000KT 10SM CLR 33/M01 A2970 RMK AO2
Observed
Jul-6 @ 07:15 UTC
Visibility
10 SM
Flight Rules
VFR
Cloud Levels
  • Clear skies
Temperature
33°C / 91°F
Dewpoint
-1°C / 30°F
Humidity
11%
Altimeter
29.7" Hg
Pressure
1005.72 hPa
Previous

47 mins ago

KIFP 060655Z AUTO 00000KT 10SM CLR 34/M00 A2969 RMK AO2
Observed
Jul-6 @ 06:55 UTC
Visibility
10 SM
Flight Rules
VFR
Cloud Levels
  • Clear skies
Temperature
34°C / 93°F
Dewpoint
C / 32°F
Humidity
11%
Altimeter
29.69" Hg
Pressure
1005.42 hPa